Time;durP1;ratioP1;P1;durP2;ratioP2;P2;SDS_P1;SDS_P2;PMS_P1;PMS_P2;Temp;Humidity;BMP_temperature;BMP_pressure;BME280_temperature;BME280_humidity;BME280_pressure;Samples;Min_cycle;Max_cycle;Signal;HPM_P1;HPM_P2
2022/09/09 00:01:06;;;;;;;4.30;1.50;;;21.20;53.30;;;;;;5066529;28;20451;-89
2022/09/09 00:03:45;;;;;;;4.20;1.60;;;21.20;53.50;;;;;;5034857;28;22082;-88
2022/09/09 00:06:21;;;;;;;2.70;1.80;;;21.20;54.00;;;;;;5030660;28;20456;-87
2022/09/09 00:09:00;;;;;;;3.30;2.10;;;21.20;54.90;;;;;;5069860;28;20503;-85
2022/09/09 00:11:31;;;;;;;3.03;1.40;;;21.20;55.40;;;;;;5070627;28;20440;-86
2022/09/09 00:14:03;;;;;;;2.13;1.43;;;20.90;55.60;;;;;;5047797;28;20445;-87
2022/09/09 00:16:34;;;;;;;6.23;1.93;;;20.60;56.70;;;;;;5037818;28;20449;-86
2022/09/09 00:19:06;;;;;;;4.90;1.40;;;20.70;57.10;;;;;;5068802;28;20452;-87
2022/09/09 00:21:36;;;;;;;1.70;1.60;;;20.70;57.60;;;;;;5066743;28;20436;-87
2022/09/09 00:24:13;;;;;;;2.30;1.40;;;20.80;58.00;;;;;;5035261;28;20468;-86
2022/09/09 00:26:46;;;;;;;1.63;1.30;;;20.90;57.40;;;;;;5034400;28;20497;-86
2022/09/09 00:29:27;;;;;;;2.30;1.50;;;21.00;56.50;;;;;;5027594;28;20480;-85
2022/09/09 00:31:59;;;;;;;5.37;2.00;;;21.00;56.90;;;;;;5035622;28;20468;-86
2022/09/09 00:34:29;;;;;;;3.10;2.10;;;21.00;57.60;;;;;;5054887;28;20471;-85
2022/09/09 00:44:29;;;;;;;2.33;1.43;;;21.00;55.20;;;;;;5037550;28;20452;-85
2022/09/09 00:47:25;;;;;;;1.97;1.53;;;21.00;57.10;;;;;;5016960;28;20445;-85
2022/09/09 00:50:03;;;;;;;3.53;1.93;;;21.00;57.60;;;;;;5007556;28;20448;-87
2022/09/09 00:52:41;;;;;;;3.37;1.60;;;21.00;57.60;;;;;;5039734;28;20514;-86
2022/09/09 00:55:18;;;;;;;2.37;1.53;;;21.00;56.90;;;;;;5023786;28;20436;-86
2022/09/09 00:57:47;;;;;;;4.40;1.80;;;21.00;57.00;;;;;;5020213;28;20481;-88
2022/09/09 01:00:25;;;;;;;1.77;1.63;;;21.00;56.60;;;;;;5018020;28;20457;-85
2022/09/09 01:03:04;;;;;;;6.33;2.57;;;21.00;56.70;;;;;;5038085;28;20436;-86
2022/09/09 01:05:41;;;;;;;3.83;1.63;;;21.00;56.50;;;;;;5039896;28;20471;-87
2022/09/09 01:08:21;;;;;;;3.50;1.90;;;21.00;56.40;;;;;;5025925;28;20602;-85
2022/09/09 01:10:53;;;;;;;2.50;1.60;;;21.00;56.40;;;;;;5031466;28;20446;-86
2022/09/09 01:13:26;;;;;;;1.60;1.50;;;21.00;56.60;;;;;;5069469;28;20552;-86
2022/09/09 01:15:56;;;;;;;3.20;2.20;;;20.90;56.50;;;;;;5023741;28;20457;-87
2022/09/09 01:18:27;;;;;;;1.90;1.80;;;20.90;56.30;;;;;;5021378;28;20476;-86
2022/09/09 01:21:03;;;;;;;4.60;1.93;;;20.90;56.40;;;;;;5022259;28;20453;-86
2022/09/09 01:23:48;;;;;;;1.50;1.40;;;20.90;55.90;;;;;;5037707;28;20488;-86
2022/09/09 01:26:36;;;;;;;2.03;1.83;;;20.80;56.00;;;;;;5022344;28;20445;-86
2022/09/09 01:29:10;;;;;;;3.20;1.47;;;20.40;57.90;;;;;;5004067;28;21313;-86
2022/09/09 01:31:43;;;;;;;2.23;1.30;;;20.50;58.20;;;;;;5017693;28;20495;-86
2022/09/09 01:34:13;;;;;;;3.70;1.47;;;20.50;56.60;;;;;;5023490;28;20460;-89
2022/09/09 01:36:45;;;;;;;5.43;1.60;;;20.40;55.90;;;;;;5014273;28;20441;-86
2022/09/09 01:39:13;;;;;;;2.80;1.70;;;20.30;56.60;;;;;;5036613;28;20464;-86
2022/09/09 01:41:43;;;;;;;2.20;1.40;;;20.40;57.50;;;;;;5036666;28;20452;-86
2022/09/09 01:44:13;;;;;;;2.93;1.40;;;20.40;56.90;;;;;;5021748;28;20603;-86
2022/09/09 01:46:44;;;;;;;2.17;1.60;;;20.50;56.80;;;;;;5054046;28;20798;-87
2022/09/09 01:49:17;;;;;;;1.43;1.33;;;20.50;57.10;;;;;;5033368;28;20468;-87
2022/09/09 01:51:50;;;;;;;1.83;1.47;;;20.60;57.80;;;;;;5071890;28;20452;-88
2022/09/09 01:54:18;;;;;;;2.87;1.50;;;20.60;56.80;;;;;;5034679;28;20449;-86
2022/09/09 01:56:58;;;;;;;2.73;1.20;;;20.60;57.00;;;;;;5040796;28;20967;-87
2022/09/09 01:59:43;;;;;;;1.20;1.10;;;20.70;57.10;;;;;;5055743;28;20861;-87
2022/09/09 02:02:14;;;;;;;1.57;1.43;;;20.70;57.20;;;;;;5021764;28;20441;-86
2022/09/09 02:04:50;;;;;;;3.13;1.40;;;20.70;57.10;;;;;;5023712;28;21063;-86
2022/09/09 02:07:35;;;;;;;3.73;1.53;;;20.70;57.10;;;;;;5054001;28;20973;-90
2022/09/09 02:10:09;;;;;;;2.50;1.63;;;20.80;57.60;;;;;;5036408;28;20448;-86
2022/09/09 02:12:45;;;;;;;2.37;1.50;;;20.80;57.70;;;;;;5019690;28;20456;-86
2022/09/09 02:15:21;;;;;;;2.37;1.20;;;20.80;57.60;;;;;;5021213;28;20800;-87
2022/09/09 02:17:53;;;;;;;1.67;1.43;;;20.90;57.50;;;;;;5030845;28;20465;-87
2022/09/09 02:20:22;;;;;;;2.70;1.50;;;20.80;57.40;;;;;;5036373;28;20493;-87
2022/09/09 02:22:57;;;;;;;3.90;1.60;;;20.70;57.40;;;;;;5019023;28;20460;-87
2022/09/09 02:25:27;;;;;;;1.97;1.70;;;20.70;58.00;;;;;;5025459;28;20579;-87
2022/09/09 02:28:00;;;;;;;1.87;1.70;;;20.80;58.20;;;;;;5034701;28;20461;-86
2022/09/09 02:30:30;;;;;;;1.93;1.53;;;20.80;58.20;;;;;;5042063;28;20807;-88
2022/09/09 02:33:02;;;;;;;4.03;2.13;;;20.80;58.20;;;;;;5031032;28;20448;-87
2022/09/09 02:35:44;;;;;;;4.17;1.73;;;20.70;58.50;;;;;;5039267;28;20437;-88
2022/09/09 02:38:15;;;;;;;2.40;1.87;;;20.80;58.50;;;;;;5035729;28;20542;-86
2022/09/09 02:40:51;;;;;;;2.90;1.40;;;20.70;58.30;;;;;;5054531;28;20447;-87
2022/09/09 02:43:20;;;;;;;1.87;1.60;;;20.70;58.20;;;;;;5052205;28;20461;-87
2022/09/09 02:45:54;;;;;;;2.40;1.47;;;20.80;58.20;;;;;;5053544;28;20469;-87
2022/09/09 02:48:30;;;;;;;2.20;1.73;;;20.70;57.60;;;;;;5037879;28;20464;-87
2022/09/09 02:51:04;;;;;;;5.93;2.20;;;20.70;57.70;;;;;;5056015;28;20927;-86
2022/09/09 02:53:40;;;;;;;1.97;1.47;;;20.80;57.90;;;;;;5055399;28;20847;-87
2022/09/09 02:56:14;;;;;;;3.57;2.00;;;20.70;58.00;;;;;;5018451;28;20449;-87
2022/09/09 02:58:46;;;;;;;2.43;1.77;;;20.70;58.40;;;;;;5055259;28;20829;-86
2022/09/09 03:01:13;;;;;;;8.63;2.57;;;20.70;57.90;;;;;;5022228;28;20470;-87
2022/09/09 03:03:41;;;;;;;2.00;1.70;;;20.70;57.50;;;;;;5052613;28;20494;-87
2022/09/09 03:06:12;;;;;;;1.50;1.37;;;20.70;57.80;;;;;;5037038;28;20792;-86
2022/09/09 03:08:40;;;;;;;2.97;1.67;;;20.60;58.00;;;;;;5033971;28;20838;-86
2022/09/09 03:11:09;;;;;;;3.70;1.70;;;20.60;57.80;;;;;;5036021;28;20451;-88
2022/09/09 03:13:37;;;;;;;3.03;1.50;;;20.70;57.50;;;;;;5041925;28;20842;-87
2022/09/09 03:16:06;;;;;;;3.53;2.13;;;20.60;57.00;;;;;;5017490;28;20816;-87
2022/09/09 03:18:39;;;;;;;2.77;1.73;;;20.60;57.50;;;;;;5031326;28;20479;-85
2022/09/09 03:21:06;;;;;;;2.17;1.73;;;20.60;57.70;;;;;;5051988;28;20456;-86
2022/09/09 03:23:34;;;;;;;4.33;1.80;;;20.60;58.20;;;;;;5020577;28;20544;-86
2022/09/09 03:26:03;;;;;;;3.50;1.57;;;20.60;57.90;;;;;;5037727;28;20491;-87
2022/09/09 03:28:39;;;;;;;2.37;1.73;;;20.60;57.80;;;;;;5049936;28;20518;-86
2022/09/09 03:31:10;;;;;;;3.40;1.73;;;20.60;58.20;;;;;;5033062;28;20461;-87
2022/09/09 03:33:40;;;;;;;3.70;2.77;;;20.60;58.40;;;;;;5016075;28;20503;-86
2022/09/09 03:36:09;;;;;;;1.80;1.53;;;20.70;58.60;;;;;;5036891;28;20528;-86
2022/09/09 03:38:36;;;;;;;1.80;1.70;;;20.70;58.50;;;;;;5060973;28;20463;-85
2022/09/09 03:41:03;;;;;;;2.60;1.87;;;20.70;58.30;;;;;;5037020;28;20453;-86
2022/09/09 03:43:31;;;;;;;3.40;2.00;;;20.60;58.00;;;;;;5033705;28;20491;-85
2022/09/09 03:45:58;;;;;;;2.90;2.07;;;20.70;57.90;;;;;;5032272;28;20559;-87
2022/09/09 03:48:28;;;;;;;1.87;1.60;;;20.70;57.90;;;;;;5032185;28;20511;-87
2022/09/09 03:50:57;;;;;;;2.03;1.40;;;20.60;57.80;;;;;;5046938;28;20513;-88
2022/09/09 03:53:25;;;;;;;3.93;2.17;;;20.60;57.10;;;;;;5051627;28;20468;-86
2022/09/09 03:55:55;;;;;;;1.90;1.70;;;20.60;57.50;;;;;;5048508;28;20449;-86
2022/09/09 03:58:26;;;;;;;2.33;1.50;;;20.40;58.00;;;;;;5033036;28;20826;-87
2022/09/09 04:00:56;;;;;;;2.97;1.67;;;20.30;58.20;;;;;;5038494;28;20519;-87
2022/09/09 04:03:24;;;;;;;1.90;1.70;;;20.30;58.30;;;;;;5055948;28;20453;-87
2022/09/09 04:05:52;;;;;;;3.00;1.90;;;20.40;58.30;;;;;;5040707;28;20468;-87
2022/09/09 04:08:21;;;;;;;2.53;1.50;;;20.50;58.20;;;;;;5038945;28;20980;-87
2022/09/09 04:10:50;;;;;;;1.47;1.37;;;20.50;58.10;;;;;;5041206;28;21003;-88
2022/09/09 04:13:20;;;;;;;1.40;1.30;;;20.50;58.00;;;;;;5022808;28;20448;-87
2022/09/09 04:15:52;;;;;;;2.50;2.30;;;20.50;57.30;;;;;;5025259;28;20441;-87
2022/09/09 04:18:20;;;;;;;4.33;1.70;;;20.40;58.00;;;;;;5033535;28;20473;-88
2022/09/09 04:20:48;;;;;;;2.03;1.93;;;20.40;58.50;;;;;;5041065;28;20449;-87
2022/09/09 04:23:20;;;;;;;3.60;1.90;;;20.40;58.60;;;;;;5025540;28;20455;-88
2022/09/09 04:25:49;;;;;;;3.70;1.47;;;20.40;58.00;;;;;;5022146;28;20991;-86
2022/09/09 04:28:17;;;;;;;1.70;1.60;;;20.40;57.20;;;;;;5018513;28;20481;-88
2022/09/09 04:30:46;;;;;;;2.03;1.87;;;20.30;57.30;;;;;;5039029;28;20448;-86
2022/09/09 04:33:17;;;;;;;4.13;1.57;;;20.30;57.20;;;;;;5024317;28;20502;-85
2022/09/09 04:35:48;;;;;;;2.03;1.50;;;20.20;55.90;;;;;;5041812;28;20445;-87
2022/09/09 04:38:18;;;;;;;1.77;1.57;;;20.10;55.80;;;;;;5032746;28;20480;-86
2022/09/09 04:40:48;;;;;;;4.30;1.73;;;20.00;56.50;;;;;;5037436;28;20468;-86
2022/09/09 04:43:17;;;;;;;3.57;1.93;;;20.10;57.50;;;;;;5021672;28;20470;-86
2022/09/09 04:45:48;;;;;;;4.60;1.60;;;20.10;57.90;;;;;;5020993;28;20475;-86
2022/09/09 04:48:15;;;;;;;5.77;2.00;;;20.10;58.60;;;;;;5056166;28;20498;-86
2022/09/09 04:50:42;;;;;;;5.47;1.80;;;20.10;58.20;;;;;;5034820;28;20887;-84
2022/09/09 04:53:12;;;;;;;4.43;2.30;;;20.20;58.20;;;;;;5037817;28;20543;-86
2022/09/09 04:55:40;;;;;;;2.70;2.17;;;20.20;58.10;;;;;;5032463;28;21021;-89
2022/09/09 04:58:09;;;;;;;6.10;2.10;;;20.20;57.90;;;;;;5017449;28;21208;-87
2022/09/09 05:00:36;;;;;;;2.80;1.70;;;20.30;58.00;;;;;;5021925;28;20448;-88
2022/09/09 05:03:08;;;;;;;2.57;1.80;;;20.20;58.40;;;;;;5051177;28;20528;-88
2022/09/09 05:05:36;;;;;;;2.97;2.10;;;20.20;58.40;;;;;;5040360;28;20468;-90
2022/09/09 05:08:04;;;;;;;4.13;2.20;;;20.20;58.60;;;;;;5050382;28;21004;-88
2022/09/09 05:10:31;;;;;;;3.93;2.30;;;20.20;58.80;;;;;;5036778;28;20468;-86
2022/09/09 05:13:01;;;;;;;2.30;2.10;;;20.10;58.90;;;;;;5026554;28;20453;-86
2022/09/09 05:15:30;;;;;;;4.43;2.27;;;20.00;59.20;;;;;;5040177;28;20438;-86
2022/09/09 05:17:59;;;;;;;3.17;2.20;;;19.90;59.40;;;;;;5019008;28;20645;-88
2022/09/09 05:20:26;;;;;;;3.80;2.63;;;19.90;59.70;;;;;;5037783;28;20445;-86
2022/09/09 05:22:54;;;;;;;2.60;2.40;;;19.90;59.90;;;;;;5038919;28;20535;-87
2022/09/09 05:25:24;;;;;;;7.17;3.27;;;20.00;59.80;;;;;;5034048;28;20470;-89
2022/09/09 05:27:51;;;;;;;4.87;2.50;;;19.90;60.30;;;;;;5036301;28;20472;-86
2022/09/09 05:30:19;;;;;;;4.40;2.10;;;20.00;59.80;;;;;;5032235;28;20451;-86
2022/09/09 05:32:47;;;;;;;3.27;2.37;;;20.10;59.70;;;;;;5019775;28;20483;-86
2022/09/09 05:35:14;;;;;;;3.27;2.17;;;20.20;59.50;;;;;;5034431;28;20437;-87
2022/09/09 05:37:43;;;;;;;3.77;3.47;;;20.30;59.20;;;;;;5039076;28;20483;-87
2022/09/09 05:40:12;;;;;;;3.93;3.20;;;20.30;59.00;;;;;;5035079;28;20835;-87
2022/09/09 05:42:40;;;;;;;3.23;2.17;;;20.20;59.50;;;;;;5040622;28;20449;-86
2022/09/09 05:45:08;;;;;;;4.33;2.60;;;20.10;59.80;;;;;;5054090;28;20488;-87
2022/09/09 05:47:37;;;;;;;2.80;2.07;;;20.10;59.80;;;;;;5018714;28;20453;-88
2022/09/09 05:50:07;;;;;;;5.93;2.20;;;20.00;59.80;;;;;;5034887;28;20480;-87
2022/09/09 05:52:34;;;;;;;3.67;2.00;;;20.10;59.40;;;;;;5036659;28;20451;-87
2022/09/09 05:55:04;;;;;;;2.83;2.30;;;20.10;59.50;;;;;;5037645;28;20455;-85
2022/09/09 05:57:31;;;;;;;2.10;1.90;;;20.20;60.30;;;;;;5036447;28;20445;-86
2022/09/09 05:59:59;;;;;;;5.43;2.17;;;20.10;60.60;;;;;;5042464;28;20463;-88
2022/09/09 06:02:26;;;;;;;3.00;2.20;;;20.10;60.70;;;;;;5039492;28;20543;-87
2022/09/09 06:04:55;;;;;;;2.43;2.23;;;20.20;60.50;;;;;;5035610;28;21053;-88
2022/09/09 06:07:23;;;;;;;3.10;2.43;;;20.30;60.60;;;;;;5041970;28;21172;-84
2022/09/09 06:09:51;;;;;;;3.37;2.50;;;20.40;60.00;;;;;;5037158;28;20987;-86
2022/09/09 06:12:18;;;;;;;5.83;2.53;;;20.40;60.10;;;;;;5050653;28;20975;-87
2022/09/09 06:14:46;;;;;;;3.60;1.80;;;20.40;60.70;;;;;;5049783;28;20491;-87
2022/09/09 06:17:13;;;;;;;2.17;1.97;;;20.30;60.30;;;;;;5032950;28;21119;-89
2022/09/09 06:19:40;;;;;;;5.43;2.33;;;20.30;60.20;;;;;;5030782;28;20468;-87
2022/09/09 06:22:12;;;;;;;2.00;1.90;;;20.40;60.90;;;;;;5027797;28;20506;-90
2022/09/09 06:24:39;;;;;;;1.90;1.70;;;20.10;60.20;;;;;;5054921;28;20788;-87
2022/09/09 06:27:07;;;;;;;1.80;1.70;;;20.10;61.00;;;;;;5072064;28;20468;-90
2022/09/09 06:29:37;;;;;;;5.80;2.30;;;20.20;61.60;;;;;;5019365;28;20991;-94
2022/09/09 06:32:04;;;;;;;4.37;2.30;;;20.40;61.30;;;;;;5034925;28;20518;-89
2022/09/09 06:34:32;;;;;;;3.17;2.40;;;20.50;61.10;;;;;;5054099;28;20501;-86
2022/09/09 06:37:00;;;;;;;2.93;2.57;;;20.30;61.20;;;;;;5040788;28;20839;-88
2022/09/09 06:39:36;;;;;;;3.67;2.47;;;20.30;61.10;;;;;;5040807;28;20457;-87
2022/09/09 06:42:04;;;;;;;2.10;2.00;;;20.30;61.00;;;;;;5032853;28;20450;-90
2022/09/09 06:45:08;;;;;;;6.00;1.90;;;20.40;60.60;;;;;;5031979;28;21102;-87
2022/09/09 06:47:43;;;;;;;2.90;1.30;;;20.50;60.00;;;;;;5055437;28;20556;-88
2022/09/09 06:50:11;;;;;;;1.77;1.23;;;20.60;59.00;;;;;;5051245;28;20480;-87
2022/09/09 06:52:39;;;;;;;1.40;1.10;;;20.60;58.90;;;;;;5019541;28;20441;-88
2022/09/09 06:55:09;;;;;;;1.40;1.30;;;20.80;59.10;;;;;;5031567;28;20572;-88
2022/09/09 06:57:37;;;;;;;1.27;1.17;;;21.00;59.10;;;;;;5033418;28;20510;-92
2022/09/09 07:00:06;;;;;;;1.33;1.23;;;21.10;59.10;;;;;;5017703;28;20854;-92
2022/09/09 07:02:38;;;;;;;2.03;1.03;;;21.20;58.50;;;;;;5007453;28;20791;-86
2022/09/09 07:05:07;;;;;;;2.13;1.40;;;21.10;59.00;;;;;;5017965;28;20515;-88
2022/09/09 07:07:35;;;;;;;2.07;1.10;;;21.10;58.30;;;;;;5034322;28;20444;-87
2022/09/09 07:10:03;;;;;;;2.70;1.20;;;21.20;58.20;;;;;;5034884;28;20538;-89
2022/09/09 07:12:33;;;;;;;1.63;1.23;;;21.10;57.50;;;;;;5041852;28;20449;-89
2022/09/09 07:15:01;;;;;;;1.47;1.10;;;21.00;57.70;;;;;;5046305;28;20815;-88
2022/09/09 07:17:29;;;;;;;2.30;0.93;;;21.00;57.20;;;;;;5035209;28;20445;-89
2022/09/09 07:19:56;;;;;;;1.10;0.80;;;20.90;57.30;;;;;;5053024;28;20440;-90
2022/09/09 07:22:24;;;;;;;3.30;2.80;;;20.80;57.60;;;;;;5048539;28;20458;-88
2022/09/09 07:24:52;;;;;;;2.40;1.10;;;20.80;57.50;;;;;;5048878;28;20792;-88
2022/09/09 07:27:19;;;;;;;2.97;1.10;;;20.90;58.00;;;;;;5048616;28;20476;-88
2022/09/09 07:29:49;;;;;;;3.27;1.50;;;21.00;58.20;;;;;;5037665;28;20471;-87
2022/09/09 07:32:17;;;;;;;2.77;1.30;;;21.20;58.00;;;;;;5043283;28;20457;-89
2022/09/09 07:34:45;;;;;;;1.10;1.00;;;21.30;57.80;;;;;;5013953;28;20679;-87
2022/09/09 07:37:13;;;;;;;2.00;1.20;;;21.40;57.70;;;;;;5020026;28;20459;-90
2022/09/09 07:39:43;;;;;;;2.30;1.53;;;21.60;57.30;;;;;;5041697;28;20477;-89
2022/09/09 07:42:11;;;;;;;1.20;0.93;;;21.80;57.10;;;;;;5051501;28;20455;-88
2022/09/09 07:44:39;;;;;;;1.20;1.10;;;21.90;56.50;;;;;;5048751;28;20525;-87
2022/09/09 07:47:12;;;;;;;2.83;1.33;;;22.00;56.40;;;;;;5033251;28;20464;-88
2022/09/09 07:49:46;;;;;;;1.93;1.07;;;22.10;56.40;;;;;;5032549;28;20481;-88
2022/09/09 07:52:14;;;;;;;1.10;0.93;;;22.20;56.30;;;;;;5041593;28;20467;-89
2022/09/09 07:54:45;;;;;;;1.20;1.10;;;22.30;56.60;;;;;;5038627;28;20450;-87
2022/09/09 07:57:15;;;;;;;1.97;1.40;;;22.40;56.40;;;;;;5036631;28;20539;-91
2022/09/09 07:59:43;;;;;;;2.87;1.33;;;22.50;56.50;;;;;;5018867;28;20474;-88
2022/09/09 08:02:11;;;;;;;1.50;1.10;;;22.50;56.20;;;;;;5032469;28;21006;-90
2022/09/09 08:04:39;;;;;;;5.50;1.10;;;22.60;56.00;;;;;;5053070;28;20445;-89
2022/09/09 08:07:06;;;;;;;1.80;1.27;;;22.60;54.80;;;;;;5047074;28;20473;-88
2022/09/09 08:09:40;;;;;;;3.63;1.87;;;22.50;55.00;;;;;;5031075;28;20476;-90
2022/09/09 08:12:18;;;;;;;2.43;1.57;;;22.50;55.50;;;;;;5014502;28;20460;-88
2022/09/09 08:14:45;;;;;;;2.03;1.23;;;22.50;55.20;;;;;;5016063;28;20449;-89
2022/09/09 08:17:13;;;;;;;1.30;1.10;;;22.60;55.30;;;;;;5029165;28;20447;-89
2022/09/09 08:19:40;;;;;;;3.20;1.30;;;22.70;55.50;;;;;;5032957;28;20477;-88
2022/09/09 08:22:13;;;;;;;1.93;0.90;;;22.70;55.00;;;;;;5022342;28;20445;-87
2022/09/09 08:24:40;;;;;;;1.40;1.10;;;22.60;55.00;;;;;;5025075;28;20459;-89
2022/09/09 08:27:09;;;;;;;3.53;1.57;;;22.60;55.30;;;;;;5031820;28;20477;-89
2022/09/09 08:29:37;;;;;;;2.83;1.37;;;22.70;55.80;;;;;;5033409;28;20469;-89
2022/09/09 08:32:05;;;;;;;1.30;1.20;;;22.70;55.20;;;;;;5034473;28;20451;-88
2022/09/09 08:34:34;;;;;;;1.53;1.00;;;22.80;54.70;;;;;;5031970;28;20443;-88
2022/09/09 08:37:05;;;;;;;2.13;1.30;;;23.00;54.50;;;;;;5016396;28;20450;-89
2022/09/09 08:39:39;;;;;;;3.80;1.40;;;23.10;54.40;;;;;;5012399;28;20838;-87
2022/09/09 08:42:28;;;;;;;3.20;1.43;;;23.10;54.00;;;;;;5023858;28;20452;-87
2022/09/09 08:45:15;;;;;;;3.20;1.30;;;23.10;54.90;;;;;;5014597;28;20453;-91
2022/09/09 08:47:53;;;;;;;5.80;1.57;;;23.00;54.50;;;;;;5029349;28;20518;-89
2022/09/09 08:50:27;;;;;;;4.50;1.50;;;23.00;54.50;;;;;;5032208;28;20569;-91
2022/09/09 08:53:05;;;;;;;3.33;2.03;;;22.80;54.30;;;;;;5016809;28;20441;-88
2022/09/09 08:55:41;;;;;;;2.23;1.47;;;22.80;54.30;;;;;;5015278;28;20482;-88
2022/09/09 08:58:14;;;;;;;4.33;1.40;;;22.80;54.10;;;;;;5035305;28;21674;-89
2022/09/09 09:01:22;;;;;;;2.73;1.43;;;22.90;54.10;;;;;;5033284;28;20484;-90
2022/09/09 09:03:58;;;;;;;2.63;1.47;;;22.70;54.20;;;;;;5032532;28;20449;-88
2022/09/09 09:06:41;;;;;;;11.97;2.33;;;22.90;54.50;;;;;;5022772;28;20472;-90
2022/09/09 09:09:15;;;;;;;2.60;1.50;;;23.00;54.20;;;;;;5038310;28;20476;-90
2022/09/09 09:11:48;;;;;;;2.17;1.27;;;23.20;54.10;;;;;;5047060;28;20465;-89
2022/09/09 09:14:21;;;;;;;2.90;1.40;;;23.20;53.70;;;;;;5031208;28;20492;-89
2022/09/09 09:16:53;;;;;;;3.00;1.40;;;23.20;53.30;;;;;;5034783;28;20998;-91
2022/09/09 09:19:22;;;;;;;4.60;1.47;;;23.40;52.70;;;;;;5034585;28;20530;-89
2022/09/09 09:21:58;;;;;;;2.33;1.40;;;23.50;53.10;;;;;;5034129;28;21005;-93
2022/09/09 09:24:34;;;;;;;7.30;1.50;;;23.60;51.60;;;;;;5048901;28;20447;-90
2022/09/09 09:27:11;;;;;;;4.97;1.70;;;23.70;51.60;;;;;;5034162;28;20474;-89
2022/09/09 09:29:40;;;;;;;3.93;2.00;;;23.80;51.70;;;;;;5034115;28;20545;-90
2022/09/09 09:32:13;;;;;;;5.00;1.60;;;24.00;52.00;;;;;;5037218;28;20464;-90
2022/09/09 09:34:40;;;;;;;4.20;1.70;;;24.10;51.20;;;;;;5035895;28;20464;-90
2022/09/09 09:37:19;;;;;;;5.80;1.50;;;24.20;50.80;;;;;;5031399;28;20447;-90
2022/09/09 09:39:46;;;;;;;2.77;1.40;;;24.20;51.10;;;;;;5018920;28;20881;-89
2022/09/09 09:42:17;;;;;;;5.47;1.43;;;24.30;50.60;;;;;;5031890;28;20532;-93
2022/09/09 09:44:46;;;;;;;2.10;1.43;;;24.20;49.40;;;;;;5034207;28;20532;-89
2022/09/09 09:47:18;;;;;;;3.83;2.60;;;24.10;49.00;;;;;;5024371;28;20869;-89
2022/09/09 09:49:53;;;;;;;3.67;1.40;;;23.90;48.50;;;;;;5026237;28;20465;-89
2022/09/09 09:52:24;;;;;;;1.50;1.30;;;24.00;48.70;;;;;;5037236;28;20543;-89
2022/09/09 09:54:53;;;;;;;1.80;1.33;;;24.00;49.30;;;;;;5008191;28;21178;-91
2022/09/09 09:57:29;;;;;;;3.53;1.70;;;23.90;48.20;;;;;;5033872;28;20457;-88
2022/09/09 10:00:08;;;;;;;4.00;1.40;;;24.10;50.00;;;;;;5043979;28;20465;-90
2022/09/09 10:02:43;;;;;;;2.70;1.53;;;23.60;49.60;;;;;;5035164;28;20520;-89
2022/09/09 10:05:18;;;;;;;2.97;1.47;;;23.50;52.10;;;;;;5040126;28;20792;-89
2022/09/09 10:08:02;;;;;;;3.00;1.40;;;23.40;52.60;;;;;;5025732;28;20579;-89
2022/09/09 10:10:47;;;;;;;4.30;1.70;;;23.40;53.10;;;;;;5064250;28;20436;-89
2022/09/09 10:13:21;;;;;;;4.27;1.70;;;23.20;53.40;;;;;;5048056;28;20870;-90
2022/09/09 10:15:59;;;;;;;4.63;1.60;;;22.80;54.00;;;;;;5035260;28;20448;-89
2022/09/09 10:18:39;;;;;;;4.10;1.47;;;22.80;54.90;;;;;;5060068;28;20567;-89
2022/09/09 10:21:18;;;;;;;2.30;1.40;;;22.70;54.30;;;;;;5062980;28;20449;-89
2022/09/09 10:23:58;;;;;;;4.20;1.60;;;22.70;54.90;;;;;;5015244;28;20982;-91
2022/09/09 10:26:38;;;;;;;2.40;1.37;;;22.60;55.00;;;;;;5022134;28;20474;-91
2022/09/09 10:29:29;;;;;;;5.43;2.00;;;22.30;56.00;;;;;;5052293;28;20477;-89
2022/09/09 10:32:08;;;;;;;5.70;2.20;;;22.20;57.80;;;;;;5070087;28;20449;-89
2022/09/09 10:34:56;;;;;;;2.70;1.60;;;22.40;58.10;;;;;;5027333;28;20440;-89
2022/09/09 10:37:35;;;;;;;5.50;1.47;;;22.50;57.60;;;;;;5046552;28;20555;-89
2022/09/09 10:40:20;;;;;;;1.57;1.10;;;22.70;56.80;;;;;;5054564;28;20439;-89
2022/09/09 10:42:47;;;;;;;2.03;1.23;;;22.80;56.80;;;;;;5031884;28;20444;-91
2022/09/09 10:45:20;;;;;;;1.30;1.20;;;22.90;56.20;;;;;;5053133;28;20476;-89
2022/09/09 10:48:03;;;;;;;1.83;1.17;;;23.00;53.80;;;;;;5033314;28;20484;-90
2022/09/09 10:50:55;;;;;;;6.77;1.50;;;23.50;54.00;;;;;;5033190;28;20967;-90
2022/09/09 10:53:32;;;;;;;5.43;1.20;;;23.50;49.80;;;;;;5003752;28;20456;-93
2022/09/09 10:56:07;;;;;;;2.23;0.90;;;23.40;51.70;;;;;;5032026;28;20544;-89
2022/09/09 10:58:42;;;;;;;1.20;1.00;;;23.60;50.60;;;;;;5052133;28;20483;-93
2022/09/09 11:01:16;;;;;;;1.40;1.17;;;23.80;50.70;;;;;;5047443;28;20456;-87
2022/09/09 11:03:47;;;;;;;5.17;0.80;;;24.00;48.80;;;;;;5025436;28;20957;-89
2022/09/09 11:06:18;;;;;;;17.00;2.00;;;24.10;49.10;;;;;;5047892;28;20468;-90
2022/09/09 11:08:45;;;;;;;3.60;1.20;;;24.30;48.50;;;;;;5032542;28;20472;-89
2022/09/09 11:11:17;;;;;;;1.27;0.90;;;24.40;52.10;;;;;;5063212;28;20901;-91
2022/09/09 11:13:51;;;;;;;5.70;1.33;;;24.60;49.50;;;;;;5032106;28;20511;-91
2022/09/09 11:16:26;;;;;;;3.93;1.23;;;24.60;47.70;;;;;;5064166;28;20476;-89
2022/09/09 11:19:01;;;;;;;3.13;1.10;;;24.90;49.40;;;;;;5048438;28;20911;-89
2022/09/09 11:21:32;;;;;;;1.40;0.90;;;25.30;48.80;;;;;;5044770;28;20771;-88
2022/09/09 11:24:02;;;;;;;6.27;1.20;;;25.30;48.50;;;;;;5049606;28;20476;-91
2022/09/09 11:26:38;;;;;;;3.67;1.20;;;25.70;49.40;;;;;;5031257;28;20459;-90
2022/09/09 11:29:41;;;;;;;3.63;1.10;;;25.60;48.00;;;;;;5034921;28;20516;-89
2022/09/09 11:32:26;;;;;;;1.43;0.73;;;25.60;49.30;;;;;;5065282;28;20448;-89
2022/09/09 11:35:02;;;;;;;3.43;1.20;;;26.00;48.00;;;;;;5046814;28;20453;-89
2022/09/09 11:37:51;;;;;;;3.37;1.00;;;26.20;46.20;;;;;;5043631;28;20963;-91
2022/09/09 11:40:23;;;;;;;7.93;1.10;;;26.40;47.20;;;;;;5042207;28;20539;-90
2022/09/09 11:43:05;;;;;;;2.73;1.00;;;26.50;46.10;;;;;;5030029;28;20444;-89
2022/09/09 11:45:35;;;;;;;3.70;1.03;;;26.40;45.10;;;;;;5024103;28;20858;-90
2022/09/09 11:48:03;;;;;;;1.90;1.10;;;26.30;46.40;;;;;;5019729;28;20473;-89
2022/09/09 11:50:36;;;;;;;1.63;1.13;;;26.10;44.40;;;;;;5062784;28;20549;-92
2022/09/09 11:53:23;;;;;;;1.20;1.00;;;26.10;44.80;;;;;;5038247;28;20452;-88
2022/09/09 11:56:11;;;;;;;2.77;1.13;;;26.20;43.70;;;;;;5063266;28;20472;-91
2022/09/09 11:58:43;;;;;;;4.07;1.20;;;26.40;43.40;;;;;;5064527;28;20456;-87
2022/09/09 12:01:34;;;;;;;2.30;1.07;;;26.50;43.00;;;;;;5041287;28;20445;-87
2022/09/09 12:04:28;;;;;;;2.83;1.20;;;26.60;41.90;;;;;;5034806;28;20452;-85
2022/09/09 12:06:59;;;;;;;5.53;1.67;;;26.70;41.80;;;;;;5020010;28;21032;-87
2022/09/09 12:09:32;;;;;;;3.63;1.00;;;26.70;40.60;;;;;;5062946;28;20491;-87
2022/09/09 12:12:07;;;;;;;1.57;0.77;;;26.70;41.60;;;;;;5061672;28;20448;-88
2022/09/09 12:14:44;;;;;;;1.93;0.83;;;26.80;40.60;;;;;;5041714;28;20445;-88
2022/09/09 12:17:20;;;;;;;1.97;0.87;;;26.80;39.60;;;;;;5044653;28;20448;-87
2022/09/09 12:19:48;;;;;;;8.53;1.20;;;26.90;40.70;;;;;;5062660;28;20543;-89
2022/09/09 12:22:26;;;;;;;1.00;0.90;;;27.10;39.90;;;;;;5044823;28;20444;-89
2022/09/09 12:25:00;;;;;;;5.53;1.00;;;27.40;38.70;;;;;;5047817;28;20528;-88
2022/09/09 12:27:34;;;;;;;2.33;1.00;;;27.20;38.30;;;;;;5065889;28;20614;-87
2022/09/09 12:30:06;;;;;;;0.90;0.70;;;27.10;37.50;;;;;;5044982;28;20552;-86
2022/09/09 12:32:33;;;;;;;2.10;0.90;;;27.00;36.90;;;;;;5048261;28;20460;-86
2022/09/09 12:35:05;;;;;;;2.13;1.03;;;26.80;37.70;;;;;;5065778;28;20454;-86
2022/09/09 12:37:36;;;;;;;1.67;0.73;;;26.80;38.60;;;;;;5066045;28;20476;-89
2022/09/09 12:40:05;;;;;;;1.63;0.77;;;27.00;37.70;;;;;;5061796;28;21007;-86
2022/09/09 12:42:34;;;;;;;1.90;0.80;;;27.00;36.30;;;;;;5063354;28;20828;-86
2022/09/09 12:45:05;;;;;;;0.80;0.80;;;27.30;37.20;;;;;;5046624;28;20445;-86
2022/09/09 12:47:42;;;;;;;7.83;1.00;;;27.70;36.60;;;;;;5062203;28;20522;-86
2022/09/09 12:50:18;;;;;;;2.90;1.20;;;27.90;35.30;;;;;;5047875;28;20448;-86
2022/09/09 12:52:47;;;;;;;6.63;1.13;;;27.70;35.60;;;;;;5048342;28;20441;-86
2022/09/09 12:55:21;;;;;;;1.20;0.97;;;27.90;35.40;;;;;;5064490;28;20535;-88
2022/09/09 12:57:50;;;;;;;1.10;0.80;;;28.20;35.30;;;;;;5062213;28;20470;-87
2022/09/09 13:00:22;;;;;;;1.27;0.90;;;28.40;34.90;;;;;;5063213;28;20471;-88
2022/09/09 13:02:52;;;;;;;5.53;0.90;;;28.40;34.00;;;;;;5048696;28;20536;-87
2022/09/09 13:05:21;;;;;;;1.83;1.00;;;28.50;35.20;;;;;;5043682;28;20440;-88
2022/09/09 13:07:48;;;;;;;1.60;1.10;;;28.60;33.50;;;;;;5044596;28;20495;-85
2022/09/09 13:10:24;;;;;;;3.23;0.90;;;28.20;33.80;;;;;;5066917;28;20464;-86
2022/09/09 13:12:51;;;;;;;2.87;1.10;;;27.80;34.70;;;;;;5031551;28;20465;-86
2022/09/09 13:15:24;;;;;;;1.60;0.90;;;27.60;35.30;;;;;;5045249;28;20449;-87
2022/09/09 13:17:54;;;;;;;1.83;0.90;;;27.90;34.80;;;;;;5062143;28;20476;-88
2022/09/09 13:20:23;;;;;;;1.47;0.70;;;28.20;34.50;;;;;;5031099;28;20455;-86
2022/09/09 13:22:52;;;;;;;1.37;0.80;;;28.30;33.70;;;;;;5063298;28;20789;-85